createdAt,value
2018-12-06T00:00:26.912Z,98296.17
2018-12-06T00:00:58.492Z,98306.59
2018-12-06T00:01:30.087Z,98309.58
2018-12-06T00:02:01.692Z,98304.47
2018-12-06T00:02:33.304Z,98301.48
2018-12-06T00:03:04.917Z,98307.02
2018-12-06T00:03:36.524Z,98301.06
2018-12-06T00:04:08.118Z,98300.63
2018-12-06T00:04:39.726Z,98298.07
2018-12-06T00:05:11.310Z,98298.08
2018-12-06T00:05:42.919Z,98283.38
2018-12-06T00:06:14.532Z,98300.25
2018-12-06T00:06:46.140Z,98300.68
2018-12-06T00:07:17.734Z,98278.32
2018-12-06T00:07:49.326Z,98299.83
2018-12-06T00:08:20.935Z,98291.30
2018-12-06T00:08:52.534Z,98301.48
2018-12-06T00:09:24.149Z,98297.69
2018-12-06T00:09:55.756Z,98293.86
2018-12-06T00:10:27.368Z,98295.14
2018-12-06T00:10:58.976Z,98292.58
2018-12-06T00:11:30.641Z,98295.99
2018-12-06T00:12:02.222Z,98296.84
2018-12-06T00:12:33.814Z,98293.45
2018-12-06T00:13:05.410Z,98287.90
2018-12-06T00:13:36.998Z,98287.05
2018-12-06T00:14:08.595Z,98284.91
2018-12-06T00:14:40.214Z,98294.77
2018-12-06T00:15:11.816Z,98289.66
2018-12-06T00:15:43.423Z,98286.67
2018-12-06T00:16:15.033Z,98282.83
2018-12-06T00:16:46.643Z,98283.74
2018-12-06T00:17:18.243Z,98278.16
2018-12-06T00:17:49.828Z,98280.72
2018-12-06T00:18:21.423Z,98288.81
2018-12-06T00:18:53.015Z,98276.07
2018-12-06T00:19:24.634Z,98278.16
2018-12-06T00:19:56.244Z,98275.65
2018-12-06T00:20:27.845Z,98279.91
2018-12-06T00:20:59.442Z,98268.41
2018-12-06T00:21:31.136Z,98270.50
2018-12-06T00:22:02.690Z,98272.23
2018-12-06T00:22:34.286Z,98272.67
2018-12-06T00:23:05.878Z,98270.05
2018-12-06T00:23:37.471Z,98274.73
2018-12-06T00:24:09.067Z,98265.75
2018-12-06T00:24:40.701Z,98272.61
2018-12-06T00:25:12.309Z,98270.47
2018-12-06T00:25:43.919Z,98271.33
2018-12-06T00:26:15.519Z,98271.76
2018-12-06T00:26:47.144Z,98266.23
2018-12-06T00:27:18.739Z,98268.78
2018-12-06T00:27:50.333Z,98264.95
2018-12-06T00:28:21.927Z,98267.08
2018-12-06T00:28:53.522Z,98268.40
2018-12-06T00:29:25.139Z,98272.23
2018-12-06T00:29:56.728Z,98267.94
2018-12-06T00:30:28.326Z,98270.48
2018-12-06T00:30:59.912Z,98268.36
2018-12-06T00:31:31.510Z,98264.94
2018-12-06T00:32:03.117Z,98264.95
2018-12-06T00:32:34.710Z,98261.97
2018-12-06T00:33:06.322Z,98269.25
2018-12-06T00:33:37.908Z,98265.86
2018-12-06T00:34:09.499Z,98261.64
2018-12-06T00:34:41.122Z,98259.95
2018-12-06T00:35:12.718Z,98255.73
2018-12-06T00:35:44.346Z,98263.40
2018-12-06T00:36:15.942Z,98255.73
2018-12-06T00:36:47.524Z,98250.63
2018-12-06T00:37:19.123Z,98262.56
2018-12-06T00:37:50.704Z,98259.16
2018-12-06T00:38:22.301Z,98259.16
2018-12-06T00:38:53.894Z,98260.48
2018-12-06T00:39:25.513Z,98257.08
2018-12-06T00:39:57.121Z,98256.22
2018-12-06T00:40:29.865Z,98247.71
2018-12-06T00:41:01.462Z,98255.80
2018-12-06T00:41:33.073Z,98251.96
2018-12-06T00:42:04.680Z,98256.23
2018-12-06T00:42:36.274Z,98248.98
2018-12-06T00:43:07.876Z,98253.25
2018-12-06T00:43:39.484Z,98250.27
2018-12-06T00:44:11.083Z,98248.56
2018-12-06T00:44:42.721Z,98247.33
2018-12-06T00:45:14.328Z,98249.42
2018-12-06T00:45:45.944Z,98247.28
2018-12-06T00:46:17.528Z,98245.15
2018-12-06T00:46:49.132Z,98242.59
2018-12-06T00:47:20.726Z,98246.05
2018-12-06T00:47:52.318Z,98244.34
2018-12-06T00:48:23.924Z,98249.03
2018-12-06T00:48:55.517Z,98244.36
2018-12-06T00:49:27.134Z,98244.36
2018-12-06T00:49:58.725Z,98248.63
2018-12-06T00:50:30.318Z,98243.13
2018-12-06T00:51:01.908Z,98244.83
2018-12-06T00:51:33.516Z,98226.69
2018-12-06T00:52:05.124Z,98247.37
2018-12-06T00:52:36.739Z,98238.45
2018-12-06T00:53:08.343Z,98240.56
2018-12-06T00:53:39.943Z,98240.56
2018-12-06T00:54:11.556Z,98244.78
2018-12-06T00:54:43.178Z,98243.03
2018-12-06T00:55:14.784Z,98240.04
2018-12-06T00:55:46.369Z,98239.19
2018-12-06T00:56:17.976Z,98232.41
2018-12-06T00:56:49.570Z,98237.48
2018-12-06T00:57:21.162Z,98234.93
2018-12-06T00:57:52.755Z,98237.10
2018-12-06T00:58:24.360Z,98256.23
2018-12-06T00:58:55.963Z,98237.52
2018-12-06T00:59:27.585Z,98236.20
2018-12-06T00:59:59.196Z,98231.14
2018-12-06T01:00:30.787Z,98241.75
2018-12-06T01:01:02.377Z,98241.32
2018-12-06T01:01:33.986Z,98240.03
2018-12-06T01:02:05.584Z,98233.66
2018-12-06T01:02:37.178Z,98235.36
2018-12-06T01:03:08.775Z,98207.25
2018-12-06T01:03:40.363Z,98233.23
2018-12-06T01:04:11.973Z,98243.88
2018-12-06T01:04:43.595Z,98237.05
2018-12-06T01:05:15.195Z,98235.40
2018-12-06T01:05:46.807Z,98239.67
2018-12-06T01:06:18.397Z,98237.96
2018-12-06T01:06:50.080Z,98234.55
2018-12-06T01:07:21.697Z,98216.03
2018-12-06T01:07:53.294Z,98242.22
2018-12-06T01:08:24.889Z,98236.25
2018-12-06T01:08:56.496Z,98230.34
2018-12-06T01:09:34.666Z,98232.79
2018-12-06T01:10:06.266Z,98230.55
2018-12-06T01:10:37.857Z,98232.61
2018-12-06T01:11:09.459Z,98231.28
2018-12-06T01:11:41.058Z,98234.25
2018-12-06T01:12:12.658Z,98228.25
2018-12-06T01:12:44.258Z,98226.48
2018-12-06T01:13:15.858Z,98223.05
2018-12-06T01:13:47.440Z,98217.89
2018-12-06T01:14:19.033Z,98221.77
2018-12-06T01:14:50.661Z,98220.44
2018-12-06T01:15:22.250Z,98226.78
2018-12-06T01:15:53.860Z,98232.31
2018-12-06T01:16:25.454Z,98228.48
2018-12-06T01:16:57.060Z,98231.88
2018-12-06T01:17:28.654Z,98229.76
2018-12-06T01:18:00.232Z,98235.72
2018-12-06T01:18:31.832Z,98231.42
2018-12-06T01:19:03.413Z,98235.72
2018-12-06T01:19:35.035Z,98229.72
2018-12-06T01:20:06.633Z,98228.86
2018-12-06T01:20:38.244Z,98230.14
2018-12-06T01:21:09.853Z,98230.18
2018-12-06T01:21:41.450Z,98228.48
2018-12-06T01:22:13.060Z,98231.03
2018-12-06T01:22:44.668Z,98230.18
2018-12-06T01:23:16.276Z,98228.44
2018-12-06T01:23:47.873Z,98237.86
2018-12-06T01:24:19.460Z,98215.52
2018-12-06T01:24:51.087Z,98235.31
2018-12-06T01:25:23.521Z,98225.50
2018-12-06T01:25:55.133Z,98229.76
2018-12-06T01:26:26.740Z,98228.48
2018-12-06T01:26:58.338Z,98228.48
2018-12-06T01:27:29.949Z,98222.09
2018-12-06T01:28:01.546Z,98218.63
2018-12-06T01:28:33.129Z,98212.66
2018-12-06T01:29:04.853Z,98196.33
2018-12-06T01:29:36.857Z,98224.20
2018-12-06T01:30:08.468Z,98219.91
2018-12-06T01:30:40.063Z,98215.26
2018-12-06T01:31:11.658Z,98205.41
2018-12-06T01:31:43.260Z,98210.52
2018-12-06T01:32:14.863Z,98199.25
2018-12-06T01:32:46.459Z,98211.81
2018-12-06T01:33:18.097Z,98213.51
2018-12-06T01:33:49.714Z,98214.34
2018-12-06T01:34:21.329Z,98213.07
2018-12-06T01:34:52.975Z,98212.22
2018-12-06T01:35:24.788Z,98207.95
2018-12-06T01:35:56.396Z,98207.97
2018-12-06T01:36:27.990Z,98214.84
2018-12-06T01:36:59.573Z,98209.67
2018-12-06T01:37:31.166Z,98207.98
2018-12-06T01:38:02.776Z,98207.98
2018-12-06T01:38:34.383Z,98212.66
2018-12-06T01:39:05.978Z,98213.08
2018-12-06T01:39:37.580Z,98215.16
2018-12-06T01:40:09.208Z,98210.51
2018-12-06T01:40:40.801Z,98212.61
2018-12-06T01:41:12.408Z,98210.95
2018-12-06T01:41:44.006Z,98210.95
2018-12-06T01:42:15.612Z,98213.09
2018-12-06T01:42:47.207Z,98207.59
2018-12-06T01:43:18.813Z,98212.70
2018-12-06T01:43:50.415Z,98208.86
2018-12-06T01:44:22.000Z,98204.67
2018-12-06T01:44:53.628Z,98205.05
2018-12-06T01:45:25.240Z,98200.78
2018-12-06T01:45:56.844Z,98209.30
2018-12-06T01:46:28.443Z,98205.05
2018-12-06T01:47:00.043Z,98213.19
2018-12-06T01:47:31.639Z,98210.17
2018-12-06T01:48:03.234Z,98209.78
2018-12-06T01:48:34.830Z,98206.43
2018-12-06T01:49:06.413Z,98204.67
2018-12-06T01:49:38.021Z,98208.09
2018-12-06T01:50:09.657Z,98208.52
2018-12-06T01:50:41.254Z,98200.00
2018-12-06T01:51:12.865Z,98205.16
2018-12-06T01:51:44.471Z,98208.56
2018-12-06T01:52:16.070Z,98208.58
2018-12-06T01:52:47.652Z,98206.39
2018-12-06T01:53:19.246Z,98212.35
2018-12-06T01:53:50.848Z,98211.93
2018-12-06T01:54:22.460Z,98214.49
2018-12-06T01:54:54.091Z,98215.39
2018-12-06T01:55:25.701Z,98218.81
2018-12-06T01:55:57.301Z,98213.70
2018-12-06T01:56:28.885Z,98211.98
2018-12-06T01:57:00.492Z,98209.84
2018-12-06T01:57:32.085Z,98209.86
2018-12-06T01:58:03.691Z,98208.52
2018-12-06T01:58:35.277Z,98210.27
2018-12-06T01:59:06.881Z,98212.41
2018-12-06T01:59:38.485Z,98209.91
2018-12-06T02:00:10.100Z,98217.59
2018-12-06T02:00:41.699Z,98216.78
2018-12-06T02:01:13.290Z,98219.82
2018-12-06T02:01:44.886Z,98220.70
2018-12-06T02:02:16.499Z,98216.10
2018-12-06T02:02:48.090Z,98222.50
2018-12-06T02:03:19.682Z,98217.83
2018-12-06T02:03:51.313Z,98216.13
2018-12-06T02:04:22.901Z,98219.96
2018-12-06T02:04:54.513Z,98212.77
2018-12-06T02:05:26.120Z,98217.03
2018-12-06T02:05:57.725Z,98223.83
2018-12-06T02:06:29.318Z,98220.44
2018-12-06T02:07:00.924Z,98220.50
2018-12-06T02:07:32.548Z,98220.01
2018-12-06T02:08:04.142Z,98216.53
2018-12-06T02:08:35.748Z,98224.14
2018-12-06T02:09:07.343Z,98221.55
2018-12-06T02:09:38.948Z,98222.77
2018-12-06T02:10:10.570Z,98225.31
2018-12-06T02:10:42.170Z,98226.16
2018-12-06T02:11:13.762Z,98227.40
2018-12-06T02:11:45.358Z,98226.58
2018-12-06T02:12:16.961Z,98227.40
2018-12-06T02:12:48.553Z,98220.19
2018-12-06T02:13:20.146Z,98221.42
2018-12-06T02:13:51.728Z,98219.28
2018-12-06T02:14:23.318Z,98217.59
2018-12-06T02:14:54.937Z,98214.67
2018-12-06T02:15:26.530Z,98216.79
2018-12-06T02:15:58.121Z,98219.35
2018-12-06T02:16:29.714Z,98218.92
2018-12-06T02:17:01.320Z,98220.20
2018-12-06T02:17:32.915Z,98216.31
2018-12-06T02:18:04.510Z,98213.75
2018-12-06T02:18:36.116Z,98214.23
2018-12-06T02:19:07.714Z,98213.39
2018-12-06T02:19:39.306Z,98210.45
2018-12-06T02:20:10.938Z,98215.57
2018-12-06T02:20:42.534Z,98208.33
2018-12-06T02:21:14.187Z,98209.66
2018-12-06T02:21:45.782Z,98206.69
2018-12-06T02:22:17.378Z,98215.68
2018-12-06T02:22:48.983Z,98215.68
2018-12-06T02:23:20.572Z,98207.17
2018-12-06T02:23:52.180Z,98166.73
2018-12-06T02:24:23.774Z,98216.55
2018-12-06T02:24:55.397Z,98203.80
2018-12-06T02:25:27.003Z,98209.77
2018-12-06T02:25:58.613Z,98208.92
2018-12-06T02:26:30.278Z,98209.11
2018-12-06T02:27:01.900Z,98211.05
2018-12-06T02:27:33.508Z,98207.65
2018-12-06T02:28:05.106Z,98212.34
2018-12-06T02:28:36.698Z,98211.06
2018-12-06T02:29:08.308Z,98200.00
2018-12-06T02:29:45.549Z,98199.62
2018-12-06T02:30:17.144Z,98205.16
2018-12-06T02:30:48.740Z,98206.02
2018-12-06T02:31:20.343Z,98211.13
2018-12-06T02:31:51.938Z,98204.31
2018-12-06T02:32:23.544Z,98203.88
2018-12-06T02:32:55.139Z,98205.59
2018-12-06T02:33:26.724Z,98203.02
2018-12-06T02:33:58.325Z,98200.85
2018-12-06T02:34:29.915Z,98201.70
2018-12-06T02:35:01.544Z,98197.01
2018-12-06T02:35:33.160Z,98200.45
2018-12-06T02:36:04.754Z,98195.77
2018-12-06T02:36:36.351Z,98196.22
2018-12-06T02:37:07.943Z,98191.95
2018-12-06T02:37:39.532Z,98188.16
2018-12-06T02:38:11.136Z,98190.73
2018-12-06T02:38:42.748Z,98186.84
2018-12-06T02:39:14.363Z,98187.69
2018-12-06T02:39:45.962Z,98190.68
2018-12-06T02:40:17.558Z,98190.30
2018-12-06T02:40:49.170Z,98184.77
2018-12-06T02:41:20.757Z,98198.39
2018-12-06T02:41:52.354Z,98192.02
2018-12-06T02:42:23.945Z,98189.88
2018-12-06T02:42:55.538Z,98189.03
2018-12-06T02:43:27.139Z,98200.09
2018-12-06T02:43:58.734Z,98191.58
2018-12-06T02:44:30.326Z,98187.73
2018-12-06T02:45:01.966Z,98188.59
2018-12-06T02:45:33.624Z,98194.98
2018-12-06T02:46:05.232Z,98196.70
2018-12-06T02:46:36.817Z,98199.25
2018-12-06T02:47:08.415Z,98198.39
2018-12-06T02:47:40.000Z,98186.05
2018-12-06T02:48:11.599Z,98190.73
2018-12-06T02:48:43.193Z,98186.05
2018-12-06T02:49:14.800Z,98192.44
2018-12-06T02:49:46.403Z,98183.49
2018-12-06T02:50:18.003Z,98185.20
2018-12-06T02:50:49.588Z,98192.44
2018-12-06T02:51:21.192Z,98194.56
2018-12-06T02:51:52.791Z,98185.61
2018-12-06T02:52:24.395Z,98171.51
2018-12-06T02:52:55.990Z,98183.44
2018-12-06T02:53:27.586Z,98180.07
2018-12-06T02:53:59.198Z,98187.70
2018-12-06T02:54:30.797Z,98175.77
2018-12-06T02:55:02.410Z,98180.88
2018-12-06T02:55:34.020Z,98174.53
2018-12-06T02:56:05.620Z,98168.95
2018-12-06T02:56:37.236Z,98165.53
2018-12-06T02:57:08.840Z,98162.55
2018-12-06T02:57:40.434Z,98159.98
2018-12-06T02:58:12.030Z,98162.14
2018-12-06T02:58:43.646Z,98149.10
2018-12-06T02:59:15.260Z,98164.25
2018-12-06T02:59:46.877Z,98161.65
2018-12-06T03:00:18.508Z,98158.30
2018-12-06T03:00:50.122Z,98154.41
2018-12-06T03:01:21.733Z,98157.81
2018-12-06T03:01:53.325Z,98174.80
2018-12-06T03:02:24.944Z,98154.75
2018-12-06T03:02:56.559Z,98156.83
2018-12-06T03:03:28.343Z,98160.22
2018-12-06T03:04:00.026Z,98159.75
2018-12-06T03:04:31.633Z,98153.36
2018-12-06T03:05:03.245Z,98154.20
2018-12-06T03:05:34.884Z,98156.33
2018-12-06T03:06:06.478Z,98158.47
2018-12-06T03:06:38.084Z,98154.63
2018-12-06T03:07:09.681Z,98154.63
2018-12-06T03:07:41.277Z,98158.03
2018-12-06T03:08:12.884Z,98161.02
2018-12-06T03:08:44.496Z,98156.30
2018-12-06T03:09:16.081Z,98153.73
2018-12-06T03:09:47.677Z,98158.00
2018-12-06T03:10:19.303Z,98154.59
2018-12-06T03:10:50.930Z,98150.36
2018-12-06T03:11:22.530Z,98155.44
2018-12-06T03:11:54.132Z,98155.44
2018-12-06T03:12:25.743Z,98145.67
2018-12-06T03:12:57.342Z,98149.09
2018-12-06T03:13:28.953Z,98148.66
2018-12-06T03:14:00.546Z,98146.06
2018-12-06T03:14:32.232Z,98145.69
2018-12-06T03:15:03.798Z,98144.79
2018-12-06T03:15:35.432Z,98145.69
2018-12-06T03:16:07.046Z,98146.95
2018-12-06T03:16:38.657Z,98145.25
2018-12-06T03:17:10.257Z,98148.23
2018-12-06T03:17:41.894Z,98138.45
2018-12-06T03:18:13.504Z,98146.47
2018-12-06T03:18:45.106Z,98139.61
2018-12-06T03:19:16.703Z,98142.99
2018-12-06T03:19:48.298Z,98142.52
2018-12-06T03:20:19.909Z,98133.57
2018-12-06T03:20:51.551Z,98138.67
2018-12-06T03:21:23.165Z,98141.22
2018-12-06T03:21:54.757Z,98134.83
2018-12-06T03:22:26.340Z,98136.06
2018-12-06T03:22:57.947Z,98139.06
2018-12-06T03:23:29.528Z,98132.73
2018-12-06T03:24:01.136Z,98131.88
2018-12-06T03:24:32.734Z,98134.42
2018-12-06T03:25:04.339Z,98134.00
2018-12-06T03:25:35.944Z,98134.86
2018-12-06T03:26:07.576Z,98128.95
2018-12-06T03:26:39.185Z,98135.82
2018-12-06T03:27:10.791Z,98134.13
2018-12-06T03:27:42.378Z,98135.45
2018-12-06T03:28:13.976Z,98132.50
2018-12-06T03:28:45.570Z,98135.52
2018-12-06T03:29:17.167Z,98132.13
2018-12-06T03:29:48.776Z,98135.15
2018-12-06T03:30:20.389Z,98129.20
2018-12-06T03:30:52.036Z,98130.52
2018-12-06T03:31:23.645Z,98126.27
2018-12-06T03:31:55.242Z,98126.28
2018-12-06T03:32:26.836Z,98123.36
2018-12-06T03:32:58.437Z,98124.27
2018-12-06T03:33:30.049Z,98121.71
2018-12-06T03:34:01.651Z,98123.43
2018-12-06T03:34:33.269Z,98127.73
2018-12-06T03:35:04.863Z,98117.58
2018-12-06T03:35:36.477Z,98123.06
2018-12-06T03:36:08.102Z,98117.10
2018-12-06T03:36:39.698Z,98118.43
2018-12-06T03:37:11.300Z,98116.30
2018-12-06T03:37:42.895Z,98112.52
2018-12-06T03:38:14.496Z,98120.61
2018-12-06T03:38:46.094Z,98117.20
2018-12-06T03:39:17.709Z,98117.63
2018-12-06T03:39:49.312Z,98113.80
2018-12-06T03:40:20.910Z,98117.63
2018-12-06T03:40:52.530Z,98113.74
2018-12-06T03:41:24.127Z,98118.61
2018-12-06T03:41:55.722Z,98115.81
2018-12-06T03:42:27.318Z,98112.67
2018-12-06T03:42:58.918Z,98113.59
2018-12-06T03:43:30.520Z,98113.31
2018-12-06T03:44:02.117Z,98121.54
2018-12-06T03:44:33.728Z,98106.81
2018-12-06T03:45:05.336Z,98111.66
2018-12-06T03:45:36.934Z,98115.62
2018-12-06T03:46:08.544Z,98108.09
2018-12-06T03:46:40.156Z,98106.91
2018-12-06T03:47:11.764Z,98106.58
2018-12-06T03:47:43.376Z,98106.69
2018-12-06T03:48:14.986Z,98111.43
2018-12-06T03:48:46.599Z,98115.74
2018-12-06T03:49:18.192Z,98110.56
2018-12-06T03:49:49.804Z,98109.52
2018-12-06T03:50:21.400Z,98117.98
2018-12-06T03:50:53.033Z,98116.28
2018-12-06T03:51:24.630Z,98109.81
2018-12-06T03:51:56.445Z,98116.59
2018-12-06T03:52:28.059Z,98114.53
2018-12-06T03:52:59.654Z,98106.30
2018-12-06T03:53:31.245Z,98103.41
2018-12-06T03:54:02.828Z,98100.98
2018-12-06T03:54:34.428Z,98103.55
2018-12-06T03:55:06.024Z,98104.47
2018-12-06T03:55:37.620Z,98107.44
2018-12-06T03:56:09.242Z,98103.91
2018-12-06T03:56:40.838Z,98111.29
2018-12-06T03:57:12.582Z,98110.16
2018-12-06T03:57:44.375Z,98104.72
2018-12-06T03:58:16.012Z,98108.21
2018-12-06T03:58:47.619Z,98107.03
2018-12-06T03:59:19.224Z,98104.16
2018-12-06T03:59:50.818Z,98106.81
2018-12-06T04:00:22.404Z,98106.48
2018-12-06T04:00:53.994Z,98100.73
2018-12-06T04:01:25.628Z,98100.98
2018-12-06T04:01:57.223Z,98106.33
2018-12-06T04:02:28.821Z,98064.91
2018-12-06T04:03:00.515Z,98101.33
2018-12-06T04:03:32.512Z,98100.36
2018-12-06T04:04:04.179Z,98104.88
2018-12-06T04:04:35.785Z,98094.56
2018-12-06T04:05:07.523Z,98101.64
2018-12-06T04:05:39.129Z,98101.45
2018-12-06T04:06:10.749Z,98078.16
2018-12-06T04:06:42.343Z,98090.17
2018-12-06T04:07:13.938Z,98092.56
2018-12-06T04:07:45.544Z,98096.31
2018-12-06T04:08:17.134Z,98090.19
2018-12-06T04:08:49.028Z,98089.23
2018-12-06T04:09:20.679Z,98083.58
2018-12-06T04:09:52.285Z,98085.99
2018-12-06T04:10:23.883Z,98089.77
2018-12-06T04:10:55.475Z,98085.87
2018-12-06T04:11:27.108Z,98087.41
2018-12-06T04:11:58.716Z,98091.60
2018-12-06T04:12:30.313Z,98087.70
2018-12-06T04:13:01.920Z,98091.47
2018-12-06T04:13:33.518Z,98087.05
2018-12-06T04:14:05.110Z,98084.42
2018-12-06T04:14:36.720Z,98080.95
2018-12-06T04:15:08.346Z,98080.03
2018-12-06T04:15:39.945Z,98080.44
2018-12-06T04:16:11.568Z,98082.45
2018-12-06T04:16:43.168Z,98083.66
2018-12-06T04:17:14.766Z,98076.73
2018-12-06T04:17:46.381Z,98076.23
2018-12-06T04:18:17.992Z,98080.06
2018-12-06T04:18:49.604Z,98080.80
2018-12-06T04:19:21.199Z,98075.20
2018-12-06T04:19:52.796Z,98081.95
2018-12-06T04:20:26.421Z,98075.54
2018-12-06T04:20:56.034Z,98074.20
2018-12-06T04:21:27.661Z,98065.67
2018-12-06T04:21:59.253Z,98073.70
2018-12-06T04:22:30.857Z,98068.11
2018-12-06T04:23:02.454Z,98067.25
2018-12-06T04:23:34.056Z,98067.66
2018-12-06T04:24:05.672Z,98068.08
2018-12-06T04:24:37.285Z,98065.09
2018-12-06T04:25:08.893Z,98062.09
2018-12-06T04:25:40.491Z,98059.05
2018-12-06T04:26:12.091Z,98067.13
2018-12-06T04:26:43.714Z,98062.45
2018-12-06T04:27:15.310Z,98064.52
2018-12-06T04:27:46.904Z,98063.23
2018-12-06T04:28:18.508Z,98066.22
2018-12-06T04:28:50.100Z,98065.35
2018-12-06T04:29:21.702Z,98066.63
2018-12-06T04:29:53.295Z,98072.56
2018-12-06T04:30:24.896Z,98067.00
2018-12-06T04:30:56.484Z,98064.43
2018-12-06T04:31:28.124Z,98060.55
2018-12-06T04:31:59.710Z,98069.07
2018-12-06T04:32:31.306Z,98064.39
2018-12-06T04:33:02.885Z,98058.48
2018-12-06T04:33:34.482Z,98060.13
2018-12-06T04:34:06.082Z,98057.57
2018-12-06T04:34:37.688Z,98059.27
2018-12-06T04:35:09.283Z,98065.24
2018-12-06T04:35:41.891Z,98062.31
2018-12-06T04:36:13.503Z,98060.59
2018-12-06T04:36:45.099Z,98063.61
2018-12-06T04:37:16.704Z,98062.80
2018-12-06T04:37:48.309Z,98065.80
2018-12-06T04:38:19.920Z,98062.83
2018-12-06T04:38:51.513Z,98065.00
2018-12-06T04:39:23.096Z,98062.03
2018-12-06T04:39:54.686Z,98058.25
2018-12-06T04:40:26.282Z,98055.75
2018-12-06T04:40:57.888Z,98057.86
2018-12-06T04:41:29.515Z,98057.86
2018-12-06T04:42:01.114Z,98058.34
2018-12-06T04:42:32.712Z,98056.67
2018-12-06T04:43:04.310Z,98056.34
2018-12-06T04:43:35.902Z,98054.23
2018-12-06T04:44:07.498Z,98057.70
2018-12-06T04:44:39.093Z,98056.43
2018-12-06T04:45:10.683Z,98053.88
2018-12-06T04:45:42.294Z,98054.36
2018-12-06T04:46:13.894Z,98045.42
2018-12-06T04:46:45.490Z,98048.45
2018-12-06T04:47:17.100Z,98043.37
2018-12-06T04:47:48.694Z,98043.84
2018-12-06T04:48:22.110Z,98047.25
2018-12-06T04:48:51.974Z,98040.50
2018-12-06T04:49:23.588Z,98034.55
2018-12-06T04:49:55.187Z,98040.14
2018-12-06T04:50:26.798Z,98030.36
2018-12-06T04:50:58.381Z,98029.09
2018-12-06T04:51:30.001Z,98034.67
2018-12-06T04:52:01.594Z,98029.14
2018-12-06T04:52:33.190Z,98030.86
2018-12-06T04:53:04.796Z,98025.37
2018-12-06T04:53:36.394Z,98026.70
2018-12-06T04:54:07.990Z,98016.50
2018-12-06T04:54:39.601Z,98015.70
2018-12-06T04:55:11.216Z,98016.14
2018-12-06T04:55:42.825Z,98014.87
2018-12-06T04:56:14.428Z,98014.05
2018-12-06T04:56:46.045Z,98009.81
2018-12-06T04:57:17.638Z,98017.05
2018-12-06T04:57:49.231Z,98015.84
2018-12-06T04:58:20.820Z,98015.88
2018-12-06T04:58:52.428Z,98012.06
2018-12-06T04:59:24.022Z,98018.46
2018-12-06T04:59:55.618Z,98004.87
2018-12-06T05:00:27.218Z,98012.55
2018-12-06T05:00:58.824Z,98004.52
2018-12-06T05:01:30.430Z,98011.35
2018-12-06T05:02:02.040Z,98009.70
2018-12-06T05:02:33.634Z,98008.87
2018-12-06T05:03:05.226Z,98008.07
2018-12-06T05:03:36.810Z,98008.07
2018-12-06T05:04:08.406Z,98001.73
2018-12-06T05:04:40.005Z,98007.28
2018-12-06T05:05:11.603Z,98002.61
2018-12-06T05:05:43.216Z,98004.78
2018-12-06T05:06:14.810Z,98006.12
2018-12-06T05:06:46.430Z,98004.42
2018-12-06T05:07:18.040Z,98006.56
2018-12-06T05:07:49.638Z,98002.31
2018-12-06T05:08:21.252Z,97998.58
2018-12-06T05:08:52.836Z,97993.86
2018-12-06T05:09:24.440Z,98001.95
2018-12-06T05:09:56.034Z,97996.89
2018-12-06T05:10:27.625Z,98002.44
2018-12-06T05:10:59.225Z,98006.31
2018-12-06T05:11:30.812Z,98003.77
2018-12-06T05:12:02.421Z,98000.36
2018-12-06T05:12:34.029Z,97987.80
2018-12-06T05:13:05.637Z,98008.51
2018-12-06T05:13:37.233Z,97998.73
2018-12-06T05:14:08.819Z,97996.22
2018-12-06T05:14:40.414Z,98000.53
2018-12-06T05:15:12.014Z,98006.92
2018-12-06T05:15:43.627Z,98000.98
2018-12-06T05:16:15.238Z,98001.42
2018-12-06T05:16:46.858Z,98005.26
2018-12-06T05:17:18.450Z,98004.41
2018-12-06T05:17:50.052Z,97999.77
2018-12-06T05:18:21.636Z,97999.36
2018-12-06T05:18:53.244Z,97999.79
2018-12-06T05:19:24.843Z,98002.34
2018-12-06T05:19:56.428Z,97994.73
2018-12-06T05:20:28.198Z,97995.59
2018-12-06T05:21:00.175Z,97998.57
2018-12-06T05:21:31.761Z,97997.72
2018-12-06T05:22:03.379Z,98001.56
2018-12-06T05:22:34.974Z,98001.61
2018-12-06T05:23:06.566Z,97995.23
2018-12-06T05:23:38.190Z,97996.95
2018-12-06T05:24:09.800Z,98025.92
2018-12-06T05:24:41.394Z,98001.67
2018-12-06T05:25:12.985Z,98005.93
2018-12-06T05:25:44.596Z,98007.64
2018-12-06T05:26:16.199Z,97993.66
2018-12-06T05:26:47.823Z,97993.22
2018-12-06T05:27:19.415Z,97994.07
2018-12-06T05:27:51.020Z,97991.09
2018-12-06T05:28:22.624Z,97994.92
2018-12-06T05:28:54.232Z,97994.50
2018-12-06T05:29:25.833Z,97990.25
2018-12-06T05:29:59.318Z,97994.94
2018-12-06T05:30:30.915Z,97991.58
2018-12-06T05:31:02.501Z,97957.11
2018-12-06T05:31:34.113Z,97995.41
2018-12-06T05:32:05.744Z,97992.00
2018-12-06T05:32:37.468Z,97993.28
2018-12-06T05:33:09.062Z,97989.03
2018-12-06T05:33:40.654Z,97989.03
2018-12-06T05:34:12.246Z,97993.28
2018-12-06T05:34:43.850Z,97973.75
2018-12-06T05:35:15.456Z,97983.49
2018-12-06T05:35:47.058Z,97982.64
2018-12-06T05:36:18.653Z,97983.55
2018-12-06T05:36:50.271Z,97984.78
2018-12-06T05:37:21.874Z,97975.41
2018-12-06T05:37:53.479Z,97988.61
2018-12-06T05:38:25.074Z,97984.82
2018-12-06T05:38:56.680Z,97986.91
2018-12-06T05:39:28.278Z,97986.05
2018-12-06T05:39:59.884Z,97988.59
2018-12-06T05:40:31.496Z,97987.80
2018-12-06T05:41:03.094Z,97987.74
2018-12-06T05:41:34.701Z,97989.44
2018-12-06T05:42:06.322Z,97988.55
2018-12-06T05:42:37.905Z,97989.41
2018-12-06T05:43:09.488Z,97988.12
2018-12-06T05:43:41.096Z,97992.38
2018-12-06T05:44:12.705Z,97994.94
2018-12-06T05:44:44.301Z,97989.39
2018-12-06T05:45:15.884Z,97990.67
2018-12-06T05:45:47.486Z,97990.23
2018-12-06T05:46:19.080Z,97991.89
2018-12-06T05:46:50.698Z,97981.30
2018-12-06T05:47:22.331Z,97982.95
2018-12-06T05:47:53.925Z,97984.66
2018-12-06T05:48:25.518Z,97984.70
2018-12-06T05:48:57.110Z,97981.25
2018-12-06T05:49:28.717Z,97976.14
2018-12-06T05:50:00.340Z,97984.66
2018-12-06T05:50:31.958Z,97989.75
2018-12-06T05:51:03.545Z,97974.44
2018-12-06T05:51:35.152Z,97975.34
2018-12-06T05:52:06.781Z,97977.84
2018-12-06T05:52:38.377Z,97975.72
2018-12-06T05:53:09.976Z,97971.95
2018-12-06T05:53:41.581Z,97973.16
2018-12-06T05:54:13.173Z,97970.19
2018-12-06T05:54:44.874Z,97969.33
2018-12-06T05:55:16.430Z,97973.16
2018-12-06T05:55:48.025Z,97968.53
2018-12-06T05:56:19.621Z,97977.84
2018-12-06T05:56:51.223Z,97971.41
2018-12-06T05:57:22.846Z,97969.27
2018-12-06T05:57:54.464Z,97976.50
2018-12-06T05:58:26.057Z,97970.12
2018-12-06T05:58:57.671Z,97970.55
2018-12-06T05:59:29.288Z,97965.02
2018-12-06T06:00:00.900Z,97965.43
2018-12-06T06:00:32.494Z,97991.81
2018-12-06T06:01:04.108Z,97967.98
2018-12-06T06:01:35.706Z,97965.42
2018-12-06T06:02:07.331Z,97970.10
2018-12-06T06:02:38.940Z,97960.27
2018-12-06T06:03:10.548Z,97956.00
2018-12-06T06:03:43.516Z,97961.06
2018-12-06T06:04:13.790Z,97957.66
2018-12-06T06:04:45.389Z,97953.82
2018-12-06T06:05:17.000Z,97953.83
2018-12-06T06:05:48.584Z,97955.08
2018-12-06T06:06:20.195Z,97959.29
2018-12-06T06:06:51.802Z,97954.61
2018-12-06T06:07:23.436Z,97942.45
2018-12-06T06:07:55.021Z,97955.03
2018-12-06T06:08:26.607Z,97952.42
2018-12-06T06:08:58.189Z,97955.42
2018-12-06T06:09:29.782Z,97955.80
2018-12-06T06:10:01.397Z,97953.23
2018-12-06T06:10:32.997Z,97956.59
2018-12-06T06:11:04.614Z,97956.58
2018-12-06T06:11:36.276Z,97954.44